X-preSS Montecervino — 9HA3980 — position and weather

sailwx.info

Track history (hours):
 
Tides and Currents Weather Stations Pressure Air Temp Water Temp Dewpoint Dewpoint Depression Visibility Wind Speed Wind Dir Waves Ship Positions

X-preSS Montecervino

Last reported at 2018-May-25 05:25 UTC. Time now 2018-May-25 10:58 UTC.
Position N 36°08' W 005°25'.

Length 134 m; draft 6.8 m.

Type: Ship. MMSI: 256677000.

Date/timePositionNaut miles runAvg speedWind from/ knotsBaromVisibWave heightAir tempDewpointWater temp
2018-May-25 05:25N 36°08' W 005°25'0 0.0
2018-May-25 04:58N 36°08' W 005°25'1 2.9
2018-May-25 04:29N 36°09' W 005°25'0 0.4
2018-May-25 03:29N 36°09' W 005°25'0 0.0
2018-May-25 02:43N 36°09' W 005°25'0 0.0
2018-May-25 02:25N 36°09' W 005°25'0 0.0
2018-May-25 01:49N 36°09' W 005°25'0 0.0
2018-May-24 20:59N 36°09' W 005°25'0 0.0
2018-May-24 20:29N 36°09' W 005°25'0 0.0
2018-May-24 19:58N 36°09' W 005°25'0 0.0
2018-May-24 02:15N 36°09' W 005°25'0 0.0
2018-May-24 01:48N 36°09' W 005°25'0 0.0
2018-May-24 01:05N 36°09' W 005°25'0 0.0
2018-May-24 00:41N 36°09' W 005°25'0 0.1
2018-May-24 00:26N 36°09' W 005°25'0 0.0
2018-May-23 23:47N 36°09' W 005°25'0 0.0
2018-May-23 23:25N 36°09' W 005°25'0 0.0
2018-May-23 22:55N 36°09' W 005°25'0 0.1
2018-May-23 22:25N 36°09' W 005°25'0 0.1
2018-May-23 21:43N 36°09' W 005°25'0 0.0
2018-May-23 20:21N 36°09' W 005°25'0 0.1
2018-May-23 20:00N 36°09' W 005°25'6 1.3
2018-May-23 15:42N 36°05' W 005°22'210.9
2018-May-23 15:30N 36°04' W 005°19'21713.6
2018-May-22 23:34N 37°14' W 001°03'114.3
2018-May-22 23:29N 37°15' W 001°02'814.0
2018-May-22 22:57N 37°20' W 000°54'614.1
2018-May-22 22:30N 37°24' W 000°49'1313.6
2018-May-22 21:35N 37°32' W 000°37'113.1
2018-May-22 21:30N 37°33' W 000°36'712.9
2018-May-22 21:00N 37°38' W 000°31'612.8
2018-May-22 20:30N 37°43' W 000°26'612.8
2018-May-22 20:00N 37°49' W 000°22'713.9
2018-May-22 19:30N 37°55' W 000°19'1113.8
2018-May-22 18:44N 38°06' W 000°17'713.4
2018-May-22 18:14N 38°08' W 000°09'314.0
2018-May-22 18:00N 38°10' W 000°05'713.9
2018-May-22 17:30N 38°16' E 000°00'714.2
2018-May-22 16:59N 38°22' E 000°05'714.4
2018-May-22 16:30N 38°28' E 000°09'714.1
2018-May-22 15:59N 38°34' E 000°14'813.9
2018-May-22 15:27N 38°40' E 000°20'614.0
2018-May-22 15:00N 38°45' E 000°25'813.8
2018-May-22 14:25N 38°52' E 000°30'613.8
2018-May-22 14:00N 38°57' E 000°34'14214.4
2018-May-22 04:11N 41°02' E 002°00'315.5
2018-May-22 04:00N 41°05' E 002°02'815.1
2018-May-22 03:30N 41°11' E 002°07'714.1
2018-May-22 03:00N 41°18' E 002°10'4 7.3
2018-May-22 02:30N 41°21' E 002°10'0 0.2
2018-May-22 01:58N 41°21' E 002°10'0 0.0
2018-May-22 01:25N 41°21' E 002°10'0 0.0
2018-May-22 00:58N 41°21' E 002°10'0 0.0
2018-May-22 00:30N 41°21' E 002°10'0 0.0
2018-May-22 00:00N 41°21' E 002°10'0 0.0
2018-May-21 23:30N 41°21' E 002°10'0 0.0
2018-May-21 23:00N 41°21' E 002°10'0 0.0
2018-May-21 22:30N 41°21' E 002°10'0 0.0
2018-May-21 21:59N 41°21' E 002°10'0 0.0
2018-May-21 21:29N 41°21' E 002°10'0 0.0
2018-May-21 20:59N 41°21' E 002°10'0 0.2
2018-May-21 20:31N 41°21' E 002°10'3 5.1
2018-May-21 20:00N 41°19' E 002°10'510.3
2018-May-21 19:30N 41°14' E 002°09'815.0
2018-May-21 19:00N 41°08' E 002°02'714.8
2018-May-21 18:30N 41°02' E 001°56'14111.5
2018-May-21 06:17N 39°26' W 000°19'0 0.0
2018-May-20 23:24N 39°26' W 000°19'1 1.6
2018-May-20 23:00N 39°27' W 000°19'1 0.2
2018-May-20 18:41N 39°27' W 000°19'0 0.0
2018-May-20 06:27N 39°27' W 000°19'0 0.0
2018-May-20 04:26N 39°27' W 000°19'0 0.0
2018-May-20 03:44N 39°27' W 000°19'0 0.3
2018-May-20 03:29N 39°27' W 000°19'2 5.1
2018-May-20 02:59N 39°25' W 000°17'100 5.3
2018-May-19 07:57N 37°45' W 000°21'613.7
2018-May-19 07:30N 37°40' W 000°25'713.9
2018-May-19 07:00N 37°34' W 000°30'713.5
2018-May-19 06:30N 37°30' W 000°36'713.4
2018-May-19 06:00N 37°25' W 000°42'713.2
2018-May-19 05:30N 37°20' W 000°48'712.9
2018-May-19 04:57N 37°16' W 000°55'712.5
2018-May-19 04:24N 37°11' W 001°02'21112.6
2018-May-18 11:40N 36°03' W 005°11'212.3
2018-May-18 11:30N 36°03' W 005°13'612.8
2018-May-18 11:00N 36°04' W 005°21'611.0
2018-May-18 10:30N 36°09' W 005°25'1 2.1
2018-May-18 09:59N 36°10' W 005°26'0 0.0
2018-May-18 09:20N 36°10' W 005°26'0 0.0
2018-May-18 08:20N 36°10' W 005°26'0 0.0
2018-May-18 05:46N 36°10' W 005°26'0 0.0
2018-May-18 05:24N 36°10' W 005°26'0 0.0
2018-May-18 04:57N 36°10' W 005°26'0 0.0
2018-May-18 04:27N 36°10' W 005°26'0 0.0
2018-May-18 03:57N 36°10' W 005°26'0 0.0
2018-May-18 03:30N 36°10' W 005°26'0 0.0
2018-May-18 02:56N 36°10' W 005°26'0 0.0
2018-May-18 02:29N 36°10' W 005°26'0 0.0
2018-May-18 01:59N 36°10' W 005°26'0 0.0
2018-May-18 01:26N 36°10' W 005°26'0 0.2
2018-May-18 00:57N 36°10' W 005°26'2 5.1
2018-May-18 00:31N 36°08' W 005°25'0 0.1
2018-May-18 00:00N 36°08' W 005°25'0 0.0
2018-May-17 23:29N 36°08' W 005°25'0 0.0
2018-May-17 22:59N 36°08' W 005°25'0 0.0
2018-May-17 22:26N 36°08' W 005°25'0 0.0
2018-May-17 21:59N 36°08' W 005°25'0 0.0
2018-May-17 21:28N 36°08' W 005°25'0 0.0
2018-May-17 20:58N 36°08' W 005°25'0 0.0
2018-May-17 20:22N 36°08' W 005°25'0 0.0
2018-May-17 19:49N 36°08' W 005°25'0 0.0
2018-May-17 19:28N 36°08' W 005°25'0 0.0
2018-May-17 18:57N 36°08' W 005°25'0 0.0
2018-May-17 18:24N 36°08' W 005°25'0 0.0
2018-May-17 17:57N 36°08' W 005°25'0 0.3
2018-May-17 17:30N 36°08' W 005°25'2 0.9
2018-May-17 15:02N 36°10' W 005°26'0 0.0
2018-May-17 14:53N 36°10' W 005°26'0 0.0
2018-May-17 14:29N 36°10' W 005°26'0 0.0
2018-May-17 13:56N 36°10' W 005°26'0 0.0
2018-May-17 13:29N 36°10' W 005°26'0 0.1
2018-May-17 12:49N 36°10' W 005°26'0 0.0
2018-May-17 12:25N 36°10' W 005°26'0 0.0
2018-May-17 11:52N 36°10' W 005°26'0 0.3
2018-May-17 10:54N 36°10' W 005°25'3 7.5
2018-May-17 10:28N 36°07' W 005°24'4 8.2
2018-May-17 10:01N 36°03' W 005°23'4 8.5
2018-May-17 09:30N 35°59' W 005°24'3 7.0
2018-May-17 09:00N 35°58' W 005°28'3 6.9
2018-May-17 08:31N 35°57' W 005°32'4 7.4
2018-May-17 08:00N 35°56' W 005°37'4 7.7
2018-May-17 07:30N 35°54' W 005°41'3 7.0
2018-May-17 07:00N 35°54' W 005°45'4 7.4
2018-May-17 06:28N 35°53' W 005°50'142 3.5
2018-May-15 13:14N 35°10' W 008°37'413.5
2018-May-15 12:58N 35°13' W 008°39'613.4
2018-May-15 12:30N 35°19' W 008°43'713.2
2018-May-15 12:00N 35°24' W 008°47'813.1
2018-May-15 11:25N 35°31' W 008°52'512.9
2018-May-15 11:00N 35°35' W 008°56'612.8
2018-May-15 10:30N 35°41' W 008°59'  
Track history (hours):
 
Tides and Currents Weather Stations Pressure Air Temp Water Temp Dewpoint Dewpoint Depression Visibility Wind Speed Wind Dir Waves Ship Positions

X-preSS Montecervino

Last reported at 2018-May-25 05:25 UTC. Time now 2018-May-25 10:58 UTC.
Position N 36°08' W 005°25'.

Length 134 m; draft 6.8 m.

Type: Ship. MMSI: 256677000.

Date/timePositionNaut miles runAvg speedWind from/ knotsBaromVisibWave heightAir tempDewpointWater temp
2018-May-25 05:25N 36°08' W 005°25'0 0.0
2018-May-25 04:58N 36°08' W 005°25'1 2.9
2018-May-25 04:29N 36°09' W 005°25'0 0.4
2018-May-25 03:29N 36°09' W 005°25'0 0.0
2018-May-25 02:43N 36°09' W 005°25'0 0.0
2018-May-25 02:25N 36°09' W 005°25'0 0.0
2018-May-25 01:49N 36°09' W 005°25'0 0.0
2018-May-24 20:59N 36°09' W 005°25'0 0.0
2018-May-24 20:29N 36°09' W 005°25'0 0.0
2018-May-24 19:58N 36°09' W 005°25'0 0.0
2018-May-24 02:15N 36°09' W 005°25'0 0.0
2018-May-24 01:48N 36°09' W 005°25'0 0.0
2018-May-24 01:05N 36°09' W 005°25'0 0.0
2018-May-24 00:41N 36°09' W 005°25'0 0.1
2018-May-24 00:26N 36°09' W 005°25'0 0.0
2018-May-23 23:47N 36°09' W 005°25'0 0.0
2018-May-23 23:25N 36°09' W 005°25'0 0.0
2018-May-23 22:55N 36°09' W 005°25'0 0.1
2018-May-23 22:25N 36°09' W 005°25'0 0.1
2018-May-23 21:43N 36°09' W 005°25'0 0.0
2018-May-23 20:21N 36°09' W 005°25'0 0.1
2018-May-23 20:00N 36°09' W 005°25'6 1.3
2018-May-23 15:42N 36°05' W 005°22'210.9
2018-May-23 15:30N 36°04' W 005°19'21713.6
2018-May-22 23:34N 37°14' W 001°03'114.3
2018-May-22 23:29N 37°15' W 001°02'814.0
2018-May-22 22:57N 37°20' W 000°54'614.1
2018-May-22 22:30N 37°24' W 000°49'1313.6
2018-May-22 21:35N 37°32' W 000°37'113.1
2018-May-22 21:30N 37°33' W 000°36'712.9
2018-May-22 21:00N 37°38' W 000°31'612.8
2018-May-22 20:30N 37°43' W 000°26'612.8
2018-May-22 20:00N 37°49' W 000°22'713.9
2018-May-22 19:30N 37°55' W 000°19'1113.8
2018-May-22 18:44N 38°06' W 000°17'713.4
2018-May-22 18:14N 38°08' W 000°09'314.0
2018-May-22 18:00N 38°10' W 000°05'713.9
2018-May-22 17:30N 38°16' E 000°00'714.2
2018-May-22 16:59N 38°22' E 000°05'714.4
2018-May-22 16:30N 38°28' E 000°09'714.1
2018-May-22 15:59N 38°34' E 000°14'813.9
2018-May-22 15:27N 38°40' E 000°20'614.0
2018-May-22 15:00N 38°45' E 000°25'813.8
2018-May-22 14:25N 38°52' E 000°30'613.8
2018-May-22 14:00N 38°57' E 000°34'14214.4
2018-May-22 04:11N 41°02' E 002°00'315.5
2018-May-22 04:00N 41°05' E 002°02'815.1
2018-May-22 03:30N 41°11' E 002°07'714.1
2018-May-22 03:00N 41°18' E 002°10'4 7.3
2018-May-22 02:30N 41°21' E 002°10'0 0.2
2018-May-22 01:58N 41°21' E 002°10'0 0.0
2018-May-22 01:25N 41°21' E 002°10'0 0.0
2018-May-22 00:58N 41°21' E 002°10'0 0.0
2018-May-22 00:30N 41°21' E 002°10'0 0.0
2018-May-22 00:00N 41°21' E 002°10'0 0.0
2018-May-21 23:30N 41°21' E 002°10'0 0.0
2018-May-21 23:00N 41°21' E 002°10'0 0.0
2018-May-21 22:30N 41°21' E 002°10'0 0.0
2018-May-21 21:59N 41°21' E 002°10'0 0.0
2018-May-21 21:29N 41°21' E 002°10'0 0.0
2018-May-21 20:59N 41°21' E 002°10'0 0.2
2018-May-21 20:31N 41°21' E 002°10'3 5.1
2018-May-21 20:00N 41°19' E 002°10'510.3
2018-May-21 19:30N 41°14' E 002°09'815.0
2018-May-21 19:00N 41°08' E 002°02'714.8
2018-May-21 18:30N 41°02' E 001°56'14111.5
2018-May-21 06:17N 39°26' W 000°19'0 0.0
2018-May-20 23:24N 39°26' W 000°19'1 1.6
2018-May-20 23:00N 39°27' W 000°19'1 0.2
2018-May-20 18:41N 39°27' W 000°19'0 0.0
2018-May-20 06:27N 39°27' W 000°19'0 0.0
2018-May-20 04:26N 39°27' W 000°19'0 0.0
2018-May-20 03:44N 39°27' W 000°19'0 0.3
2018-May-20 03:29N 39°27' W 000°19'2 5.1
2018-May-20 02:59N 39°25' W 000°17'100 5.3
2018-May-19 07:57N 37°45' W 000°21'613.7
2018-May-19 07:30N 37°40' W 000°25'713.9
2018-May-19 07:00N 37°34' W 000°30'713.5
2018-May-19 06:30N 37°30' W 000°36'713.4
2018-May-19 06:00N 37°25' W 000°42'713.2
2018-May-19 05:30N 37°20' W 000°48'712.9
2018-May-19 04:57N 37°16' W 000°55'712.5
2018-May-19 04:24N 37°11' W 001°02'21112.6
2018-May-18 11:40N 36°03' W 005°11'212.3
2018-May-18 11:30N 36°03' W 005°13'612.8
2018-May-18 11:00N 36°04' W 005°21'611.0
2018-May-18 10:30N 36°09' W 005°25'1 2.1
2018-May-18 09:59N 36°10' W 005°26'0 0.0
2018-May-18 09:20N 36°10' W 005°26'0 0.0
2018-May-18 08:20N 36°10' W 005°26'0 0.0
2018-May-18 05:46N 36°10' W 005°26'0 0.0
2018-May-18 05:24N 36°10' W 005°26'0 0.0
2018-May-18 04:57N 36°10' W 005°26'0 0.0
2018-May-18 04:27N 36°10' W 005°26'0 0.0
2018-May-18 03:57N 36°10' W 005°26'0 0.0
2018-May-18 03:30N 36°10' W 005°26'0 0.0
2018-May-18 02:56N 36°10' W 005°26'0 0.0
2018-May-18 02:29N 36°10' W 005°26'0 0.0
2018-May-18 01:59N 36°10' W 005°26'0 0.0
2018-May-18 01:26N 36°10' W 005°26'0 0.2
2018-May-18 00:57N 36°10' W 005°26'2 5.1
2018-May-18 00:31N 36°08' W 005°25'0 0.1
2018-May-18 00:00N 36°08' W 005°25'0 0.0
2018-May-17 23:29N 36°08' W 005°25'0 0.0
2018-May-17 22:59N 36°08' W 005°25'0 0.0
2018-May-17 22:26N 36°08' W 005°25'0 0.0
2018-May-17 21:59N 36°08' W 005°25'0 0.0
2018-May-17 21:28N 36°08' W 005°25'0 0.0
2018-May-17 20:58N 36°08' W 005°25'0 0.0
2018-May-17 20:22N 36°08' W 005°25'0 0.0
2018-May-17 19:49N 36°08' W 005°25'0 0.0
2018-May-17 19:28N 36°08' W 005°25'0 0.0
2018-May-17 18:57N 36°08' W 005°25'0 0.0
2018-May-17 18:24N 36°08' W 005°25'0 0.0
2018-May-17 17:57N 36°08' W 005°25'0 0.3
2018-May-17 17:30N 36°08' W 005°25'2 0.9
2018-May-17 15:02N 36°10' W 005°26'0 0.0
2018-May-17 14:53N 36°10' W 005°26'0 0.0
2018-May-17 14:29N 36°10' W 005°26'0 0.0
2018-May-17 13:56N 36°10' W 005°26'0 0.0
2018-May-17 13:29N 36°10' W 005°26'0 0.1
2018-May-17 12:49N 36°10' W 005°26'0 0.0
2018-May-17 12:25N 36°10' W 005°26'0 0.0
2018-May-17 11:52N 36°10' W 005°26'0 0.3
2018-May-17 10:54N 36°10' W 005°25'3 7.5
2018-May-17 10:28N 36°07' W 005°24'4 8.2
2018-May-17 10:01N 36°03' W 005°23'4 8.5
2018-May-17 09:30N 35°59' W 005°24'3 7.0
2018-May-17 09:00N 35°58' W 005°28'3 6.9
2018-May-17 08:31N 35°57' W 005°32'4 7.4
2018-May-17 08:00N 35°56' W 005°37'4 7.7
2018-May-17 07:30N 35°54' W 005°41'3 7.0
2018-May-17 07:00N 35°54' W 005°45'4 7.4
2018-May-17 06:28N 35°53' W 005°50'142 3.5
2018-May-15 13:14N 35°10' W 008°37'413.5
2018-May-15 12:58N 35°13' W 008°39'613.4
2018-May-15 12:30N 35°19' W 008°43'713.2
2018-May-15 12:00N 35°24' W 008°47'813.1
2018-May-15 11:25N 35°31' W 008°52'512.9
2018-May-15 11:00N 35°35' W 008°56'612.8
2018-May-15 10:30N 35°41' W 008°59'  

Dump ship's entire track history